Terminal Aerodrome Forecast
Issued by NWS Mobile, AL

Home | Current Version | Previous Version | Text Only | Print | Product List | Glossary On
Versions: 1 2 3 4 5 6 7 8 9 10 11 12 13 14 15 16 17 18 19 20 21 22 23 24 25 26 27 28 29 30
000
FTUS44 KMOB 161122
TAFPNS
TAF
KPNS 161122Z 1612/1712 VRB03KT P6SM SCT040
     FM161500 34007KT P6SM OVC040
     FM162300 34014G20KT P6SM -RA OVC025
     FM170600 35016G22KT P6SM OVC015 PROB30 1706/1712 P6SM -SN
      OVC009=

USA.gov is the U.S. government's official web portal to all federal, state and local government web resources and services.